Time;durP1;ratioP1;P1;durP2;ratioP2;P2;SDS_P1;SDS_P2;PMS_P1;PMS_P2;Temp;Humidity;BMP_temperature;BMP_pressure;BME280_temperature;BME280_humidity;BME280_pressure;Samples;Min_cycle;Max_cycle;Signal;HPM_P1;HPM_P2
2023/01/17 00:01:45;;;;;;;2.10;2.00;;;7.60;82.90;;;10.22;58.32;97601.69;5015785;28;20198;-51
2023/01/17 00:09:53;;;;;;;3.20;2.90;;;7.60;83.00;;;10.19;58.39;97607.44;5016161;28;20187;-50
2023/01/17 00:12:21;;;;;;;2.83;2.63;;;7.50;83.40;;;10.12;59.20;97612.91;5015570;28;20175;-51
2023/01/17 00:14:52;;;;;;;5.43;3.03;;;7.50;83.60;;;10.13;59.30;97608.41;5025720;28;20436;-51
2023/01/17 00:17:20;;;;;;;2.80;2.60;;;7.50;83.40;;;10.21;58.61;97600.09;5023735;28;20260;-52
2023/01/17 01:35:43;;;;;;;6.07;5.50;;;7.70;84.80;;;10.52;58.79;97648.47;5042164;28;20228;-52
2023/01/17 01:38:10;;;;;;;6.63;5.97;;;7.70;84.70;;;10.49;59.28;97649.75;5034692;28;20230;-51
2023/01/17 01:40:46;;;;;;;7.13;6.47;;;7.70;84.60;;;10.48;59.11;97658.69;5041956;28;20241;-53
2023/01/17 01:43:17;;;;;;;7.23;6.53;;;7.60;84.60;;;10.48;58.69;97658.69;5036494;28;20603;-52
2023/01/17 01:45:50;;;;;;;6.57;5.97;;;7.60;84.70;;;10.48;59.05;97663.16;5023654;28;20205;-54
2023/01/17 01:48:34;;;;;;;5.97;5.37;;;7.60;84.70;;;10.39;58.47;97660.16;5034823;28;20248;-53
2023/01/17 01:51:10;;;;;;;6.07;5.47;;;7.60;84.00;;;10.31;58.61;97663.28;5025350;28;20282;-52
2023/01/17 01:53:45;;;;;;;6.17;4.93;;;7.50;83.60;;;10.24;57.80;97662.69;5020683;28;20179;-55
2023/01/17 01:56:14;;;;;;;8.00;5.43;;;7.40;83.20;;;10.16;58.43;97661.28;5029684;28;20190;-54
2023/01/17 01:58:46;;;;;;;6.53;5.50;;;7.40;83.10;;;10.09;57.90;97658.03;5028158;28;20245;-52
2023/01/17 02:01:14;;;;;;;7.13;5.60;;;7.40;83.00;;;10.06;58.24;97662.97;5027462;28;20243;-54
2023/01/17 02:03:43;;;;;;;7.43;5.87;;;7.30;83.10;;;10.05;57.79;97664.03;5040948;28;20221;-52
2023/01/17 02:06:26;;;;;;;7.07;5.83;;;7.30;83.20;;;10.00;58.23;97667.41;5046566;28;20195;-52
2023/01/17 02:08:54;;;;;;;7.57;6.20;;;7.20;83.40;;;10.00;58.35;97670.03;5038985;28;20214;-49
2023/01/17 02:11:21;;;;;;;8.67;6.57;;;7.20;83.50;;;9.96;58.37;97665.50;5033367;28;20206;-53
2023/01/17 02:13:48;;;;;;;7.50;5.73;;;7.10;83.50;;;9.94;58.68;97678.06;5023496;28;20187;-53
2023/01/17 02:16:36;;;;;;;7.47;5.67;;;7.10;83.60;;;9.90;58.12;97671.72;5025656;28;20199;-50
2023/01/17 02:19:36;;;;;;;7.67;5.23;;;7.10;83.80;;;9.87;58.13;97677.47;5026359;28;20222;-50
2023/01/17 02:22:32;;;;;;;7.20;6.10;;;7.10;83.70;;;9.81;58.39;97671.38;5022118;28;20195;-53
2023/01/17 02:25:30;;;;;;;6.73;5.87;;;7.00;84.00;;;9.78;58.88;97676.31;5023812;28;20242;-50
2023/01/17 02:28:22;;;;;;;7.20;5.73;;;7.00;84.10;;;9.77;58.77;97677.38;5025649;28;20241;-52
2023/01/17 02:30:56;;;;;;;6.63;5.67;;;7.00;84.20;;;9.82;58.64;97682.66;5027977;28;20199;-51
2023/01/17 02:33:32;;;;;;;6.13;5.43;;;7.00;84.30;;;9.78;59.06;97690.25;5020215;28;20191;-50
2023/01/17 02:36:09;;;;;;;6.17;5.20;;;7.00;84.10;;;9.77;58.95;97686.03;5022152;28;20187;-55
2023/01/17 02:38:49;;;;;;;6.80;5.27;;;7.00;84.30;;;9.75;59.08;97685.47;5035438;28;20544;-49
2023/01/17 02:41:22;;;;;;;5.33;4.83;;;7.00;84.70;;;9.77;59.25;97693.13;5040781;28;20645;-51
2023/01/17 02:43:50;;;;;;;5.37;4.83;;;7.00;85.20;;;9.75;59.67;97701.22;5040158;28;20207;-50
2023/01/17 02:46:18;;;;;;;5.30;4.67;;;7.00;85.30;;;9.74;59.47;97693.59;5040669;28;20202;-53
2023/01/17 02:48:47;;;;;;;5.07;4.33;;;6.90;85.20;;;9.75;59.59;97698.59;5032522;28;20222;-53
2023/01/17 02:51:50;;;;;;;4.53;4.13;;;6.90;85.70;;;9.73;59.47;97707.75;5021396;28;20195;-52
2023/01/17 02:54:38;;;;;;;4.43;3.73;;;6.90;85.80;;;9.74;59.90;97704.13;5021423;28;20199;-51
2023/01/17 02:57:28;;;;;;;6.23;4.17;;;6.90;85.70;;;9.76;59.92;97712.53;5034989;28;20183;-53
2023/01/17 03:00:05;;;;;;;3.80;3.50;;;6.90;85.70;;;9.77;59.70;97708.88;5039844;28;20584;-50
2023/01/17 03:02:47;;;;;;;4.27;2.93;;;6.90;85.60;;;9.80;59.23;97700.50;5041547;28;20632;-53
2023/01/17 03:05:22;;;;;;;3.07;2.80;;;6.90;85.60;;;9.85;59.12;97716.31;5029207;28;20257;-51
2023/01/17 03:07:51;;;;;;;5.93;2.93;;;6.90;85.60;;;9.85;59.35;97721.56;5032101;28;20265;-52
2023/01/17 03:10:20;;;;;;;3.07;2.37;;;6.90;85.60;;;9.86;59.54;97723.19;5021395;28;20290;-54
2023/01/17 03:12:47;;;;;;;2.47;2.27;;;7.00;85.60;;;9.85;59.50;97721.56;5021496;28;20226;-53
2023/01/17 03:15:16;;;;;;;2.40;2.03;;;7.00;85.40;;;9.84;59.39;97725.25;5022487;28;20191;-54
2023/01/17 03:17:50;;;;;;;1.93;1.80;;;7.00;85.20;;;9.83;59.20;97729.72;5020822;28;20231;-52
2023/01/17 03:20:18;;;;;;;3.00;2.00;;;7.00;85.20;;;9.87;59.57;97730.00;5038352;28;20190;-59
2023/01/17 03:22:48;;;;;;;2.20;1.20;;;7.00;85.20;;;9.88;59.06;97742.09;5039544;28;20175;-52
2023/01/17 03:25:16;;;;;;;1.43;1.20;;;7.00;85.20;;;9.87;59.44;97735.25;5039145;28;20219;-52
2023/01/17 03:27:43;;;;;;;1.47;1.37;;;7.00;85.00;;;9.86;59.36;97755.50;5037798;28;20214;-52
2023/01/17 03:30:11;;;;;;;1.53;1.10;;;7.00;84.80;;;9.87;59.34;97746.56;5020301;28;20195;-53
2023/01/17 03:32:38;;;;;;;1.10;1.10;;;7.10;84.80;;;9.86;59.23;97754.69;5021310;28;20191;-53
2023/01/17 03:35:08;;;;;;;0.90;0.80;;;7.10;84.70;;;9.88;59.45;97752.63;5034145;28;20271;-51
2023/01/17 03:37:35;;;;;;;1.30;0.97;;;7.10;84.80;;;9.89;58.73;97757.63;5043041;28;20218;-51
2023/01/17 03:40:02;;;;;;;0.80;0.80;;;7.10;84.60;;;9.88;58.87;97774.44;5025015;28;20195;-50
2023/01/17 03:42:29;;;;;;;1.00;0.80;;;7.10;84.70;;;9.90;59.24;97771.53;5023612;28;20298;-50
2023/01/17 03:44:56;;;;;;;0.80;0.80;;;7.10;84.70;;;9.89;58.85;97769.97;5023372;28;20222;-53
2023/01/17 03:47:23;;;;;;;0.73;0.73;;;7.10;84.60;;;9.87;59.09;97769.41;5034329;28;20244;-53
2023/01/17 03:49:50;;;;;;;0.70;0.70;;;7.00;84.50;;;9.83;58.86;97781.44;5026353;28;20191;-52
2023/01/17 03:52:18;;;;;;;0.83;0.70;;;7.10;84.60;;;9.82;59.43;97785.09;5020779;28;20214;-50
2023/01/17 03:54:47;;;;;;;0.60;0.60;;;7.10;84.70;;;9.83;59.10;97792.75;5024834;28;20195;-50
2023/01/17 03:57:14;;;;;;;0.57;0.57;;;7.00;84.80;;;9.84;59.55;97789.06;5039821;28;20241;-52
2023/01/17 03:59:41;;;;;;;0.70;0.70;;;7.00;84.80;;;9.87;59.03;97798.28;5026396;28;20198;-51
2023/01/17 04:02:08;;;;;;;1.70;0.50;;;7.00;84.70;;;9.90;59.36;97808.31;5016696;28;20187;-51
2023/01/17 04:04:35;;;;;;;0.53;0.53;;;7.00;84.80;;;9.93;58.96;97807.84;5018543;28;20219;-51
2023/01/17 04:07:02;;;;;;;0.47;0.47;;;7.00;84.60;;;9.95;58.63;97809.19;5035642;28;20197;-51
2023/01/17 04:09:32;;;;;;;1.13;0.60;;;7.10;84.50;;;9.97;58.97;97816.81;5031653;28;20277;-52
2023/01/17 04:12:00;;;;;;;2.63;0.50;;;7.00;83.90;;;9.98;58.78;97826.31;5029934;28;20208;-54
2023/01/17 04:14:27;;;;;;;1.00;0.47;;;7.10;84.10;;;10.00;57.87;97819.78;5034778;28;20191;-54
2023/01/17 04:16:55;;;;;;;0.50;0.40;;;7.10;83.70;;;10.03;58.09;97834.25;5036576;28;20209;-51
2023/01/17 04:19:22;;;;;;;1.10;0.60;;;7.10;83.70;;;10.05;58.15;97843.50;5031102;28;20222;-51
2023/01/17 04:21:49;;;;;;;1.13;0.30;;;7.10;83.50;;;10.06;57.93;97839.00;5037866;28;20254;-52
2023/01/17 04:24:16;;;;;;;0.30;0.30;;;7.10;83.50;;;10.05;58.15;97847.94;5037058;28;20655;-51
2023/01/17 04:26:45;;;;;;;0.77;0.40;;;7.10;83.40;;;10.03;57.84;97858.69;5035698;28;20240;-51
2023/01/17 04:29:12;;;;;;;0.80;0.40;;;7.10;83.50;;;10.02;57.76;97874.69;5031039;28;20269;-49
2023/01/17 04:31:39;;;;;;;0.40;0.40;;;7.10;83.50;;;10.00;58.05;97877.56;5015631;28;20191;-51
2023/01/17 04:34:06;;;;;;;1.43;0.53;;;7.10;83.60;;;9.99;57.76;97881.22;5015755;28;20183;-50
2023/01/17 04:36:33;;;;;;;0.40;0.30;;;7.10;83.70;;;9.97;57.82;97883.31;5033131;28;20242;-50
2023/01/17 04:39:00;;;;;;;1.17;0.47;;;7.10;83.60;;;9.96;57.82;97880.94;5030364;28;20219;-52
2023/01/17 04:41:26;;;;;;;0.93;0.50;;;7.10;83.60;;;9.92;58.30;97885.84;5034910;28;20198;-51
2023/01/17 04:43:55;;;;;;;1.50;0.60;;;7.00;83.40;;;9.88;58.11;97886.59;5035452;28;20215;-49
2023/01/17 04:46:22;;;;;;;3.57;0.70;;;7.00;83.40;;;9.85;58.28;97892.31;5018259;28;20207;-52
2023/01/17 04:48:49;;;;;;;1.83;0.70;;;7.00;83.00;;;9.84;58.15;97903.88;5017999;28;20663;-49
2023/01/17 04:51:16;;;;;;;1.43;0.77;;;7.00;82.90;;;9.82;57.39;97911.16;5034356;28;20261;-49
2023/01/17 04:53:43;;;;;;;2.03;0.50;;;6.90;82.70;;;9.82;57.40;97916.41;5034741;28;20194;-52
2023/01/17 04:56:10;;;;;;;4.80;1.03;;;6.90;82.90;;;9.82;57.57;97916.41;5028650;28;20265;-49
2023/01/17 04:58:37;;;;;;;3.80;0.50;;;6.90;82.80;;;9.83;57.38;97916.19;5023000;28;20214;-51
2023/01/17 05:01:07;;;;;;;2.03;0.77;;;6.90;82.90;;;9.83;57.64;97931.97;5014683;28;20215;-49
2023/01/17 05:03:35;;;;;;;1.57;0.87;;;6.90;83.50;;;9.86;57.43;97933.31;5021345;28;20655;-51
2023/01/17 05:06:02;;;;;;;3.97;1.10;;;6.90;82.90;;;9.86;57.58;97943.81;5021190;28;20644;-51
2023/01/17 05:08:29;;;;;;;5.70;0.80;;;6.90;82.60;;;9.86;57.37;97951.69;5024253;28;20214;-48
2023/01/17 05:10:56;;;;;;;3.87;0.90;;;7.00;82.80;;;9.88;57.25;97952.25;5014534;28;20656;-54
2023/01/17 05:13:23;;;;;;;3.90;1.03;;;7.00;82.80;;;9.92;57.42;97953.34;5014453;28;20297;-50
2023/01/17 05:15:50;;;;;;;4.97;0.93;;;7.00;82.80;;;9.95;57.40;97966.03;5025794;28;20206;-50
2023/01/17 05:18:18;;;;;;;4.27;1.33;;;7.00;82.30;;;9.96;56.50;97971.03;5035468;28;20683;-51
2023/01/17 05:20:45;;;;;;;2.27;1.30;;;7.00;81.90;;;9.96;56.77;97975.50;5034974;28;20564;-50
2023/01/17 05:23:12;;;;;;;4.83;1.27;;;7.00;81.50;;;9.94;56.10;97978.34;5034391;28;20673;-50
2023/01/17 05:25:43;;;;;;;4.77;1.20;;;7.00;80.80;;;9.95;56.17;97990.47;5024202;28;20306;-52
2023/01/17 05:28:12;;;;;;;4.40;1.10;;;7.00;81.00;;;9.96;56.28;98001.78;5014295;28;20215;-51
2023/01/17 05:30:39;;;;;;;5.37;2.30;;;7.00;80.90;;;9.97;56.19;98013.88;5014711;28;20210;-51
2023/01/17 05:33:08;;;;;;;4.10;1.03;;;7.00;80.30;;;9.98;55.44;98025.97;5014367;28;20655;-52
2023/01/17 05:35:37;;;;;;;2.10;0.97;;;7.00;80.10;;;9.96;55.37;98028.06;5022366;28;20191;-52
2023/01/17 05:38:04;;;;;;;3.57;0.87;;;7.00;80.10;;;9.96;55.60;98038.56;5024411;28;20222;-50
2023/01/17 05:40:32;;;;;;;2.43;1.27;;;7.00;80.10;;;9.97;55.22;98048.03;5014599;28;20748;-51
2023/01/17 05:43:04;;;;;;;3.50;1.17;;;7.00;80.10;;;9.96;55.59;98047.22;5015148;28;20195;-52
2023/01/17 05:45:32;;;;;;;4.57;1.30;;;7.00;80.20;;;9.99;55.28;98059.09;5027330;28;20226;-51
2023/01/17 05:48:00;;;;;;;2.47;1.30;;;7.00;79.80;;;10.01;55.71;98072.78;5032677;28;20219;-50
2023/01/17 05:50:30;;;;;;;3.80;0.93;;;7.00;79.60;;;10.02;54.65;98082.28;5034116;28;20226;-51
2023/01/17 05:53:02;;;;;;;1.93;0.90;;;7.00;79.10;;;10.05;55.15;98084.44;5030815;28;20187;-50
2023/01/17 05:55:31;;;;;;;3.13;1.17;;;7.10;79.40;;;10.07;54.62;98090.25;5020699;28;20258;-50
2023/01/17 05:57:58;;;;;;;4.20;1.30;;;7.10;79.10;;;10.05;54.62;98087.88;5023795;28;20302;-51
2023/01/17 06:00:26;;;;;;;5.63;1.60;;;7.10;78.80;;;10.02;54.59;98095.41;5029301;28;20198;-50
2023/01/17 06:02:55;;;;;;;4.27;1.50;;;7.10;78.70;;;9.99;55.17;98101.94;5033664;28;20191;-50
2023/01/17 06:05:23;;;;;;;6.47;1.20;;;7.10;78.80;;;9.97;54.65;98100.56;5020903;28;20272;-52
2023/01/17 06:07:50;;;;;;;4.23;1.20;;;7.10;78.70;;;9.96;54.58;98112.13;5022187;28;20214;-51
2023/01/17 06:10:21;;;;;;;1.33;0.80;;;7.00;78.40;;;9.86;54.07;98114.56;5032954;28;20305;-52
2023/01/17 06:12:48;;;;;;;2.43;0.53;;;7.00;78.10;;;9.71;54.25;98114.25;5033359;28;20285;-51
2023/01/17 06:15:17;;;;;;;2.40;0.70;;;6.90;78.20;;;9.54;54.59;98128.13;5032205;28;20194;-51
2023/01/17 06:17:44;;;;;;;2.30;1.07;;;6.80;78.40;;;9.34;55.11;98119.81;5025737;28;20219;-54
2023/01/17 06:20:11;;;;;;;1.37;0.77;;;6.70;78.40;;;9.20;55.42;98118.47;5019691;28;20220;-51
2023/01/17 06:22:39;;;;;;;2.83;0.97;;;6.60;78.80;;;9.12;55.87;98124.09;5018867;28;20205;-51
2023/01/17 06:25:06;;;;;;;1.90;0.63;;;6.50;79.40;;;9.06;56.03;98122.38;5026883;28;20211;-53
2023/01/17 06:27:35;;;;;;;1.93;1.13;;;6.40;79.70;;;9.00;56.21;98136.44;5021669;28;20232;-52
2023/01/17 06:30:02;;;;;;;2.57;1.23;;;6.30;81.00;;;8.96;56.70;98137.09;5018156;28;20207;-50
2023/01/17 06:32:29;;;;;;;2.97;1.30;;;6.20;80.50;;;8.89;56.87;98145.06;5019812;28;20660;-53
2023/01/17 06:34:56;;;;;;;2.43;1.10;;;6.20;81.00;;;8.85;56.90;98147.38;5036416;28;20199;-52
2023/01/17 06:37:23;;;;;;;3.90;1.53;;;6.10;81.30;;;8.84;56.82;98139.72;5037091;28;20226;-53
2023/01/17 06:39:50;;;;;;;2.67;1.07;;;6.00;81.40;;;8.79;57.02;98160.59;5034002;28;20210;-53
2023/01/17 06:42:17;;;;;;;1.97;1.00;;;6.00;81.50;;;8.75;57.17;98177.78;5034156;28;20196;-52
2023/01/17 06:44:45;;;;;;;2.47;0.93;;;6.00;81.60;;;8.72;57.25;98178.25;5027640;28;20684;-50
2023/01/17 06:47:12;;;;;;;4.20;1.30;;;5.90;81.60;;;8.70;57.09;98177.69;5014557;28;20197;-50
2023/01/17 06:49:39;;;;;;;3.67;1.00;;;5.90;81.70;;;8.68;57.11;98174.47;5014316;28;20197;-51
2023/01/17 06:52:06;;;;;;;1.63;0.87;;;5.90;81.80;;;8.66;57.45;98184.38;5013330;28;20265;-49
2023/01/17 06:54:33;;;;;;;4.00;1.40;;;5.80;81.80;;;8.63;57.40;98184.81;5014644;28;20247;-49
2023/01/17 06:57:00;;;;;;;7.60;1.30;;;5.80;82.00;;;8.59;57.58;98183.69;5017246;28;20304;-54
2023/01/17 06:59:27;;;;;;;1.90;1.50;;;5.80;82.10;;;8.61;58.10;98194.75;5020202;28;20215;-50
2023/01/17 07:01:56;;;;;;;2.43;0.80;;;5.80;82.40;;;8.63;57.76;98190.06;5019922;28;20204;-54
2023/01/17 07:04:26;;;;;;;4.60;1.50;;;5.80;82.30;;;8.64;57.49;98202.16;5008518;28;20241;-52
2023/01/17 07:06:54;;;;;;;1.07;0.80;;;5.80;82.40;;;8.62;57.49;98204.22;4996124;28;20725;-53
2023/01/17 07:09:21;;;;;;;4.87;1.37;;;5.80;82.30;;;8.58;57.89;98208.31;5008710;28;20215;-49
2023/01/17 07:11:50;;;;;;;4.77;1.03;;;5.80;82.30;;;8.56;57.82;98211.16;5015581;28;20636;-51
2023/01/17 07:14:17;;;;;;;2.93;1.00;;;5.80;82.30;;;8.56;57.75;98231.31;5019454;28;20197;-52
2023/01/17 07:16:45;;;;;;;5.80;1.37;;;5.80;82.50;;;8.53;58.00;98222.09;5014981;28;20303;-51
2023/01/17 07:19:13;;;;;;;2.53;1.00;;;5.80;82.50;;;8.53;58.25;98227.34;5009710;28;20208;-51
2023/01/17 07:21:40;;;;;;;1.80;0.90;;;5.70;82.80;;;8.54;57.95;98238.59;4998167;28;20196;-53
2023/01/17 07:24:08;;;;;;;3.43;1.10;;;5.70;82.80;;;8.56;58.31;98233.94;5005491;28;20242;-54
2023/01/17 07:26:36;;;;;;;7.03;1.97;;;5.70;83.00;;;8.56;58.39;98242.59;5001040;28;20709;-51
2023/01/17 07:29:04;;;;;;;2.07;1.07;;;5.70;83.20;;;8.55;58.13;98246.25;4989726;28;20252;-52
2023/01/17 07:31:37;;;;;;;2.10;0.93;;;5.70;83.00;;;8.56;58.28;98245.22;4998983;28;20203;-58
2023/01/17 07:34:04;;;;;;;2.90;1.10;;;5.70;83.20;;;8.54;58.31;98254.34;4993771;28;20230;-53
2023/01/17 07:36:33;;;;;;;5.07;1.60;;;5.80;83.50;;;8.51;58.51;98249.56;4997515;28;20205;-50
2023/01/17 07:39:00;;;;;;;7.93;1.50;;;5.70;83.40;;;8.48;58.82;98255.22;5000695;28;20306;-53
2023/01/17 07:41:29;;;;;;;4.80;1.50;;;5.70;83.30;;;8.48;58.48;98255.22;5001127;28;20220;-53
2023/01/17 07:43:57;;;;;;;1.87;1.47;;;5.70;83.40;;;8.51;58.57;98250.34;5001140;28;20216;-52
2023/01/17 07:46:24;;;;;;;5.03;1.77;;;5.70;83.40;;;8.55;58.42;98261.19;5002879;28;20201;-54
2023/01/17 07:48:52;;;;;;;4.00;1.93;;;5.70;83.40;;;8.57;58.40;98252.06;5006336;28;20239;-52
2023/01/17 07:51:19;;;;;;;5.30;1.60;;;5.70;83.40;;;8.57;58.04;98261.75;5005656;28;20208;-51
2023/01/17 07:53:48;;;;;;;5.77;1.40;;;5.70;83.10;;;8.52;57.96;98261.63;4986748;28;20189;-55
2023/01/17 07:56:16;;;;;;;3.27;1.40;;;5.70;82.80;;;8.49;58.07;98259.44;5004544;28;20236;-52
2023/01/17 07:58:43;;;;;;;6.27;1.60;;;5.70;82.50;;;8.50;57.83;98268.91;5003074;28;20229;-53
2023/01/17 08:01:14;;;;;;;6.10;1.47;;;5.70;82.50;;;8.48;57.81;98270.97;5005588;28;20865;-52
2023/01/17 08:03:42;;;;;;;5.43;1.20;;;5.70;82.30;;;8.49;57.81;98277.78;5006219;28;20596;-52
2023/01/17 08:06:19;;;;;;;4.40;1.23;;;5.70;82.30;;;8.49;57.85;98283.84;4997756;28;20302;-54
2023/01/17 08:08:48;;;;;;;2.83;1.13;;;5.70;82.20;;;8.49;57.89;98286.47;5000456;28;20440;-52
2023/01/17 08:11:21;;;;;;;6.20;1.77;;;5.70;82.20;;;8.49;57.95;98286.47;4992205;28;20955;-55
2023/01/17 08:13:56;;;;;;;3.53;1.20;;;5.70;81.90;;;8.48;57.93;98291.94;5015863;28;20188;-57
2023/01/17 08:16:23;;;;;;;4.23;1.60;;;5.70;81.80;;;8.44;57.13;98290.78;5013014;28;20201;-53
2023/01/17 08:18:52;;;;;;;3.37;0.90;;;5.70;81.50;;;8.42;57.31;98292.78;5008794;28;20214;-56
2023/01/17 08:21:18;;;;;;;5.63;1.10;;;5.60;81.10;;;8.40;57.16;98300.09;4995933;28;20241;-55
2023/01/17 08:23:49;;;;;;;6.67;1.30;;;5.60;80.80;;;8.38;56.99;98296.88;4996648;28;20824;-51
2023/01/17 08:26:20;;;;;;;3.40;1.20;;;5.60;80.70;;;8.35;56.57;98302.56;5001128;28;20664;-52
2023/01/17 08:28:54;;;;;;;2.67;1.10;;;5.60;80.50;;;8.28;56.67;98307.09;5005405;28;20262;-56
2023/01/17 08:31:23;;;;;;;4.53;1.10;;;5.60;80.40;;;8.27;56.62;98308.13;5006364;28;20307;-59
2023/01/17 08:33:50;;;;;;;6.13;1.37;;;5.50;80.20;;;8.25;56.62;98312.75;5003972;28;20577;-52
2023/01/17 08:39:22;;;;;;;9.23;2.80;;;5.50;80.00;;;8.24;56.50;98319.81;4858231;24;20266;-53
2023/01/17 08:41:49;;;;;;;3.57;1.30;;;5.50;79.90;;;8.27;56.24;98321.22;4707665;30;20208;-54
2023/01/17 08:44:17;;;;;;;6.37;1.30;;;5.50;79.90;;;8.30;56.12;98328.63;4716673;30;20226;-54
2023/01/17 08:46:44;;;;;;;7.37;1.57;;;5.50;79.70;;;8.31;56.17;98331.03;4720466;30;20309;-53
2023/01/17 08:49:13;;;;;;;3.13;0.90;;;5.50;79.50;;;8.34;55.84;98329.81;4732565;30;20268;-51
2023/01/17 08:51:40;;;;;;;1.90;1.07;;;5.50;79.20;;;8.30;55.78;98326.81;4735235;30;20232;-53
2023/01/17 08:54:11;;;;;;;3.70;1.57;;;5.50;78.90;;;8.30;55.72;98329.44;4734771;30;20232;-54
2023/01/17 08:56:45;;;;;;;2.97;1.17;;;5.60;79.10;;;8.30;55.53;98336.47;4727862;30;20218;-53
2023/01/17 08:59:13;;;;;;;3.80;1.30;;;5.50;78.60;;;8.32;55.35;98345.72;4725629;30;20229;-50
2023/01/17 09:01:44;;;;;;;4.00;1.37;;;5.60;78.60;;;8.35;55.26;98349.72;4726849;30;20228;-51
2023/01/17 09:04:13;;;;;;;3.13;1.30;;;5.60;78.60;;;8.36;55.29;98351.34;4733382;30;20223;-52
2023/01/17 09:06:47;;;;;;;3.03;1.30;;;5.60;78.50;;;8.33;54.67;98357.03;4733304;30;20363;-54
2023/01/17 09:09:16;;;;;;;5.13;1.23;;;5.60;77.80;;;8.33;54.87;98351.78;4733151;30;20230;-52
2023/01/17 09:11:45;;;;;;;5.97;1.23;;;5.60;77.90;;;8.35;54.66;98357.59;4729492;30;20223;-51
2023/01/17 09:14:12;;;;;;;5.33;1.00;;;5.60;77.50;;;8.35;54.62;98361.03;4714246;30;20268;-51
2023/01/17 09:16:39;;;;;;;4.83;1.50;;;5.60;77.60;;;8.35;54.48;98370.69;4730195;30;20201;-52
2023/01/17 09:19:08;;;;;;;2.10;1.00;;;5.60;77.00;;;8.37;54.57;98368.69;4728575;30;20236;-49
2023/01/17 09:21:35;;;;;;;3.63;1.80;;;5.60;77.00;;;8.42;54.43;98371.41;4728229;30;20200;-51
2023/01/17 09:24:12;;;;;;;5.77;1.43;;;5.60;77.00;;;8.41;53.81;98375.06;4735360;30;20284;-54
2023/01/17 09:26:40;;;;;;;3.37;1.13;;;5.60;76.40;;;8.42;53.90;98379.28;4714465;30;20777;-52
2023/01/17 09:29:09;;;;;;;4.40;1.40;;;5.70;76.30;;;8.46;53.79;98375.22;4712079;30;20237;-57
2023/01/17 09:31:36;;;;;;;2.33;1.17;;;5.70;76.20;;;8.49;53.57;98385.25;4717535;30;20218;-56
2023/01/17 09:34:05;;;;;;;3.20;0.90;;;5.70;76.00;;;8.49;53.30;98382.63;4707230;30;20725;-55
2023/01/17 09:36:33;;;;;;;3.83;1.20;;;5.70;75.50;;;8.51;53.43;98393.72;4728219;30;20682;-55
2023/01/17 09:39:03;;;;;;;4.03;1.67;;;5.70;75.50;;;8.58;53.34;98397.06;4694483;30;20230;-53
2023/01/17 09:41:34;;;;;;;6.67;1.63;;;5.80;76.00;;;8.68;53.83;98397.34;4716483;30;20215;-55
2023/01/17 09:44:12;;;;;;;2.27;1.30;;;5.80;76.20;;;8.74;52.79;98396.47;4705983;30;20624;-55
2023/01/17 09:46:45;;;;;;;5.23;1.57;;;5.90;75.70;;;8.82;52.78;98414.50;4699676;30;20706;-59
2023/01/17 09:49:31;;;;;;;3.70;1.23;;;5.90;75.20;;;8.84;52.44;98413.25;4716118;30;20239;-55
2023/01/17 09:52:06;;;;;;;5.17;1.50;;;6.00;74.90;;;8.88;51.91;98413.63;4714127;30;20217;-54
2023/01/17 09:54:39;;;;;;;2.30;1.20;;;6.00;74.00;;;8.90;52.24;98416.84;4725210;30;20220;-57
2023/01/17 09:57:23;;;;;;;5.23;1.30;;;6.00;73.80;;;8.96;51.81;98415.97;4726575;30;20201;-55
2023/01/17 10:00:02;;;;;;;2.90;1.00;;;6.10;73.50;;;9.03;51.38;98427.19;4736092;30;20236;-53
2023/01/17 10:02:54;;;;;;;4.13;1.37;;;6.20;73.40;;;9.10;51.43;98422.66;4737529;30;20249;-55
2023/01/17 10:05:45;;;;;;;6.70;1.27;;;6.30;73.10;;;9.27;51.04;98434.09;4729389;30;20248;-54
2023/01/17 10:08:32;;;;;;;5.20;1.10;;;6.30;73.00;;;9.54;50.33;98439.78;4728078;30;20283;-55
2023/01/17 10:11:36;;;;;;;5.03;1.13;;;6.50;72.40;;;9.80;50.01;98438.56;4731234;30;20776;-52
2023/01/17 10:14:34;;;;;;;2.20;1.10;;;6.70;72.20;;;10.30;49.29;98445.03;4729085;30;20215;-56
2023/01/17 10:17:17;;;;;;;3.73;1.60;;;6.90;72.10;;;10.86;48.48;98439.91;4730473;30;20209;-49
2023/01/17 10:20:09;;;;;;;2.93;1.20;;;7.30;72.60;;;11.36;47.62;98436.66;4728307;30;21007;-51
2023/01/17 10:23:02;;;;;;;5.33;1.30;;;7.60;71.20;;;11.78;46.63;98451.13;4718227;30;20217;-51
2023/01/17 10:25:45;;;;;;;3.13;1.13;;;7.90;69.10;;;12.05;45.55;98452.06;4726290;30;20549;-51
2023/01/17 10:28:17;;;;;;;5.27;1.27;;;8.30;67.60;;;12.29;44.28;98446.66;4729120;30;20247;-53
2023/01/17 10:30:49;;;;;;;3.50;1.07;;;8.60;66.40;;;12.43;44.44;98450.53;4724094;30;20217;-56
2023/01/17 10:33:25;;;;;;;2.57;1.10;;;8.90;65.50;;;12.57;43.43;98451.78;4732303;30;20221;-53
2023/01/17 10:35:56;;;;;;;4.50;1.57;;;9.10;64.10;;;12.64;43.94;98449.78;4730256;30;20211;-54
2023/01/17 10:38:30;;;;;;;2.20;1.03;;;9.20;64.40;;;12.73;44.24;98445.66;4724228;30;20241;-54
2023/01/17 10:41:08;;;;;;;5.00;1.97;;;9.40;64.20;;;12.75;44.10;98449.66;4728914;30;20314;-56
2023/01/17 10:43:44;;;;;;;8.30;2.57;;;9.40;63.50;;;12.65;43.62;98448.72;4730814;30;20336;-56
2023/01/17 10:46:18;;;;;;;1.57;1.10;;;9.50;63.10;;;12.37;43.30;98441.75;4721323;30;20224;-51
2023/01/17 10:48:51;;;;;;;3.20;1.13;;;9.30;62.00;;;12.10;43.86;98446.88;4719877;30;20337;-55
2023/01/17 10:51:58;;;;;;;6.40;2.03;;;9.20;62.20;;;11.80;44.59;98446.41;4725327;30;20217;-53
2023/01/17 10:54:50;;;;;;;2.87;1.23;;;9.00;63.00;;;11.57;44.72;98457.06;4724188;30;20707;-51
2023/01/17 10:57:21;;;;;;;5.50;2.40;;;8.80;63.00;;;11.34;44.89;98446.63;4726903;30;20301;-56
2023/01/17 10:59:49;;;;;;;1.80;0.90;;;8.60;63.50;;;11.15;45.17;98456.53;4724409;30;20283;-54
2023/01/17 11:02:24;;;;;;;4.60;1.33;;;8.40;63.90;;;10.98;46.03;98452.25;4725256;30;20210;-54
2023/01/17 11:04:56;;;;;;;3.10;1.27;;;8.20;64.50;;;10.86;46.02;98457.56;4723897;30;20598;-56
2023/01/17 11:07:27;;;;;;;3.70;1.33;;;8.10;65.30;;;10.79;46.63;98447.13;4734311;30;20232;-58
2023/01/17 11:09:56;;;;;;;3.10;1.70;;;8.00;65.90;;;10.71;46.87;98458.03;4728829;30;20205;-55
2023/01/17 11:12:29;;;;;;;3.37;1.60;;;7.90;66.20;;;10.65;46.98;98448.44;4730790;30;20197;-53
2023/01/17 11:15:16;;;;;;;2.43;1.27;;;7.90;66.00;;;10.57;46.48;98455.88;4729129;30;20222;-57
2023/01/17 11:17:51;;;;;;;3.67;1.37;;;7.80;66.10;;;10.50;46.55;98449.94;4730617;30;20217;-58
2023/01/17 11:20:28;;;;;;;4.47;1.30;;;7.70;66.10;;;10.46;46.61;98460.09;4714031;30;20212;-50
2023/01/17 11:23:14;;;;;;;5.13;1.37;;;7.70;66.70;;;10.39;47.38;98462.06;4725604;30;20208;-57
2023/01/17 11:25:50;;;;;;;2.37;1.40;;;7.70;67.00;;;10.36;46.95;98465.16;4728194;30;20209;-56
2023/01/17 11:28:31;;;;;;;3.83;0.97;;;7.60;66.00;;;10.30;46.98;98455.56;4692167;30;20237;-58
2023/01/17 11:31:06;;;;;;;5.13;1.03;;;7.60;66.40;;;10.30;47.57;98463.44;4716529;30;20213;-57
2023/01/17 11:33:47;;;;;;;3.37;1.30;;;7.60;66.90;;;10.31;47.53;98461.63;4738536;30;20355;-59
2023/01/17 11:36:23;;;;;;;6.27;1.63;;;7.50;67.20;;;10.32;47.49;98463.22;4733900;30;20241;-58
2023/01/17 11:39:02;;;;;;;3.13;1.53;;;7.60;67.50;;;10.34;47.99;98466.44;4716886;30;20388;-58
2023/01/17 11:41:36;;;;;;;6.47;1.73;;;7.60;67.60;;;10.36;47.74;98459.91;4716775;30;20218;-61
2023/01/17 11:44:22;;;;;;;4.10;1.70;;;7.60;67.50;;;10.40;47.59;98460.25;4733563;30;20225;-58
2023/01/17 11:47:13;;;;;;;4.30;1.87;;;7.60;67.20;;;10.83;46.90;98455.38;4700567;30;20237;-58
2023/01/17 11:49:43;;;;;;;6.67;1.43;;;7.70;67.30;;;11.82;46.49;98465.41;4729899;30;20307;-55
2023/01/17 11:52:22;;;;;;;2.90;1.23;;;8.10;67.70;;;12.54;43.39;98457.53;4735100;30;20278;-52
2023/01/17 11:54:52;;;;;;;3.10;1.30;;;8.70;65.20;;;13.17;43.96;98465.75;4730112;30;20213;-53
2023/01/17 11:57:24;;;;;;;5.20;1.60;;;9.20;65.00;;;13.57;42.98;98462.75;4726867;30;20284;-56
2023/01/17 12:00:02;;;;;;;3.50;1.50;;;9.70;64.10;;;14.02;41.30;98459.72;4729261;30;20209;-60
2023/01/17 12:02:51;;;;;;;4.97;1.17;;;10.10;60.00;;;14.15;39.88;98448.69;4713033;30;20217;-53
2023/01/17 12:05:38;;;;;;;6.90;2.27;;;10.50;58.00;;;14.33;39.85;98450.16;4730018;30;20267;-55
2023/01/17 12:08:22;;;;;;;2.20;1.43;;;10.80;57.30;;;14.48;39.41;98452.91;4709595;30;20779;-51
2023/01/17 12:11:02;;;;;;;2.90;1.00;;;11.00;56.40;;;14.50;38.92;98448.94;4732483;30;20209;-53
2023/01/17 12:14:01;;;;;;;1.83;1.13;;;11.20;56.00;;;14.47;38.87;98452.13;4732070;30;20224;-55
2023/01/17 12:16:48;;;;;;;4.43;1.20;;;11.30;54.90;;;14.59;39.16;98455.38;4733625;30;20198;-55